sensor_id;sensor_type;location;lat;lon;timestamp;P1;durP1;ratioP1;P2;durP2;ratioP2
44248;SDS011;29923;48.718;9.272;2023-06-10T00:02:15;6.72;;;4.38;;
44248;SDS011;29923;48.718;9.272;2023-06-10T00:04:42;7.07;;;3.88;;
44248;SDS011;29923;48.718;9.272;2023-06-10T00:07:07;8.55;;;4.55;;
44248;SDS011;29923;48.718;9.272;2023-06-10T00:09:36;6.40;;;4.07;;
44248;SDS011;29923;48.718;9.272;2023-06-10T00:12:06;8.40;;;3.83;;
44248;SDS011;29923;48.718;9.272;2023-06-10T00:14:33;7.88;;;5.30;;
44248;SDS011;29923;48.718;9.272;2023-06-10T00:16:58;9.63;;;4.53;;
44248;SDS011;29923;48.718;9.272;2023-06-10T00:19:24;6.97;;;5.00;;
44248;SDS011;29923;48.718;9.272;2023-06-10T00:21:50;10.20;;;5.43;;
44248;SDS011;29923;48.718;9.272;2023-06-10T00:24:17;6.68;;;5.20;;
44248;SDS011;29923;48.718;9.272;2023-06-10T00:26:43;8.20;;;5.10;;
44248;SDS011;29923;48.718;9.272;2023-06-10T00:29:08;10.80;;;4.80;;
44248;SDS011;29923;48.718;9.272;2023-06-10T00:31:34;7.35;;;4.90;;
44248;SDS011;29923;48.718;9.272;2023-06-10T00:34:01;10.88;;;5.10;;
44248;SDS011;29923;48.718;9.272;2023-06-10T00:36:27;6.63;;;4.55;;
44248;SDS011;29923;48.718;9.272;2023-06-10T00:38:52;5.78;;;4.38;;
44248;SDS011;29923;48.718;9.272;2023-06-10T00:41:18;9.18;;;4.75;;
44248;SDS011;29923;48.718;9.272;2023-06-10T00:43:43;7.43;;;5.15;;
44248;SDS011;29923;48.718;9.272;2023-06-10T00:46:09;9.23;;;4.93;;
44248;SDS011;29923;48.718;9.272;2023-06-10T00:48:36;7.28;;;4.80;;
44248;SDS011;29923;48.718;9.272;2023-06-10T00:51:03;10.55;;;4.93;;
44248;SDS011;29923;48.718;9.272;2023-06-10T00:53:30;7.20;;;4.95;;
44248;SDS011;29923;48.718;9.272;2023-06-10T00:55:55;8.63;;;5.07;;
44248;SDS011;29923;48.718;9.272;2023-06-10T00:58:21;7.82;;;5.07;;
44248;SDS011;29923;48.718;9.272;2023-06-10T01:00:46;8.80;;;4.95;;
44248;SDS011;29923;48.718;9.272;2023-06-10T01:03:11;8.23;;;4.78;;
44248;SDS011;29923;48.718;9.272;2023-06-10T01:05:40;7.18;;;5.53;;
44248;SDS011;29923;48.718;9.272;2023-06-10T01:08:15;7.22;;;4.97;;
44248;SDS011;29923;48.718;9.272;2023-06-10T01:10:53;5.78;;;4.38;;
44248;SDS011;29923;48.718;9.272;2023-06-10T01:13:20;8.55;;;4.32;;
44248;SDS011;29923;48.718;9.272;2023-06-10T01:15:49;6.53;;;4.68;;
44248;SDS011;29923;48.718;9.272;2023-06-10T01:18:14;6.32;;;3.95;;
44248;SDS011;29923;48.718;9.272;2023-06-10T01:20:40;7.93;;;4.40;;
44248;SDS011;29923;48.718;9.272;2023-06-10T01:23:06;7.20;;;5.05;;
44248;SDS011;29923;48.718;9.272;2023-06-10T01:25:32;6.13;;;4.03;;
44248;SDS011;29923;48.718;9.272;2023-06-10T01:28:10;7.00;;;4.28;;
44248;SDS011;29923;48.718;9.272;2023-06-10T01:30:59;6.15;;;4.50;;
44248;SDS011;29923;48.718;9.272;2023-06-10T01:33:28;5.85;;;4.28;;
44248;SDS011;29923;48.718;9.272;2023-06-10T01:35:57;5.22;;;4.45;;
44248;SDS011;29923;48.718;9.272;2023-06-10T01:38:23;7.90;;;4.88;;
44248;SDS011;29923;48.718;9.272;2023-06-10T01:40:50;9.80;;;4.38;;
44248;SDS011;29923;48.718;9.272;2023-06-10T01:43:17;5.90;;;4.65;;
44248;SDS011;29923;48.718;9.272;2023-06-10T01:45:45;6.50;;;5.03;;
44248;SDS011;29923;48.718;9.272;2023-06-10T01:48:10;5.75;;;4.65;;
44248;SDS011;29923;48.718;9.272;2023-06-10T01:50:36;8.52;;;4.95;;
44248;SDS011;29923;48.718;9.272;2023-06-10T01:53:03;7.90;;;4.43;;
44248;SDS011;29923;48.718;9.272;2023-06-10T01:55:28;7.50;;;4.43;;
44248;SDS011;29923;48.718;9.272;2023-06-10T01:57:54;7.70;;;4.50;;
44248;SDS011;29923;48.718;9.272;2023-06-10T02:00:19;7.53;;;5.00;;
44248;SDS011;29923;48.718;9.272;2023-06-10T02:02:44;7.68;;;4.70;;
44248;SDS011;29923;48.718;9.272;2023-06-10T02:05:10;6.95;;;4.78;;
44248;SDS011;29923;48.718;9.272;2023-06-10T02:07:35;4.85;;;4.35;;
44248;SDS011;29923;48.718;9.272;2023-06-10T02:10:00;8.43;;;4.45;;
44248;SDS011;29923;48.718;9.272;2023-06-10T02:12:26;6.20;;;4.32;;
44248;SDS011;29923;48.718;9.272;2023-06-10T02:14:51;6.32;;;4.47;;
44248;SDS011;29923;48.718;9.272;2023-06-10T02:17:17;5.82;;;4.40;;
44248;SDS011;29923;48.718;9.272;2023-06-10T02:19:42;6.43;;;4.35;;
44248;SDS011;29923;48.718;9.272;2023-06-10T02:22:08;7.97;;;4.30;;
44248;SDS011;29923;48.718;9.272;2023-06-10T02:24:35;14.13;;;5.30;;
44248;SDS011;29923;48.718;9.272;2023-06-10T02:27:01;10.13;;;4.38;;
44248;SDS011;29923;48.718;9.272;2023-06-10T02:29:28;5.75;;;4.63;;
44248;SDS011;29923;48.718;9.272;2023-06-10T02:31:53;6.55;;;4.60;;
44248;SDS011;29923;48.718;9.272;2023-06-10T02:34:19;6.15;;;4.65;;
44248;SDS011;29923;48.718;9.272;2023-06-10T02:36:44;5.53;;;4.15;;
44248;SDS011;29923;48.718;9.272;2023-06-10T02:39:10;8.40;;;4.20;;
44248;SDS011;29923;48.718;9.272;2023-06-10T02:41:35;7.95;;;4.78;;
44248;SDS011;29923;48.718;9.272;2023-06-10T02:44:01;6.38;;;4.03;;
44248;SDS011;29923;48.718;9.272;2023-06-10T02:46:26;6.30;;;4.25;;
44248;SDS011;29923;48.718;9.272;2023-06-10T02:48:53;5.95;;;4.63;;
44248;SDS011;29923;48.718;9.272;2023-06-10T02:51:19;5.25;;;4.00;;
44248;SDS011;29923;48.718;9.272;2023-06-10T02:53:45;8.52;;;4.53;;
44248;SDS011;29923;48.718;9.272;2023-06-10T02:56:11;4.75;;;3.88;;
44248;SDS011;29923;48.718;9.272;2023-06-10T02:58:37;6.53;;;4.28;;
44248;SDS011;29923;48.718;9.272;2023-06-10T03:01:03;5.40;;;4.20;;
44248;SDS011;29923;48.718;9.272;2023-06-10T03:03:28;6.00;;;4.18;;
44248;SDS011;29923;48.718;9.272;2023-06-10T03:05:55;5.15;;;3.80;;
44248;SDS011;29923;48.718;9.272;2023-06-10T03:08:21;7.57;;;4.05;;
44248;SDS011;29923;48.718;9.272;2023-06-10T03:10:47;4.85;;;3.83;;
44248;SDS011;29923;48.718;9.272;2023-06-10T03:13:12;4.88;;;4.38;;
44248;SDS011;29923;48.718;9.272;2023-06-10T03:15:37;6.82;;;4.70;;
44248;SDS011;29923;48.718;9.272;2023-06-10T03:18:05;6.47;;;4.30;;
44248;SDS011;29923;48.718;9.272;2023-06-10T03:20:31;5.00;;;3.78;;
44248;SDS011;29923;48.718;9.272;2023-06-10T03:23:02;5.70;;;4.60;;
44248;SDS011;29923;48.718;9.272;2023-06-10T03:25:30;13.00;;;4.20;;
44248;SDS011;29923;48.718;9.272;2023-06-10T03:27:55;7.18;;;4.32;;
44248;SDS011;29923;48.718;9.272;2023-06-10T03:30:20;6.78;;;4.38;;
44248;SDS011;29923;48.718;9.272;2023-06-10T03:32:46;7.47;;;4.35;;
44248;SDS011;29923;48.718;9.272;2023-06-10T03:35:11;4.72;;;3.75;;
44248;SDS011;29923;48.718;9.272;2023-06-10T03:37:37;9.77;;;4.68;;
44248;SDS011;29923;48.718;9.272;2023-06-10T03:40:02;6.40;;;4.15;;
44248;SDS011;29923;48.718;9.272;2023-06-10T03:42:28;5.50;;;3.88;;
44248;SDS011;29923;48.718;9.272;2023-06-10T03:44:54;6.47;;;4.32;;
44248;SDS011;29923;48.718;9.272;2023-06-10T03:47:20;4.88;;;4.10;;
44248;SDS011;29923;48.718;9.272;2023-06-10T03:49:46;5.57;;;4.60;;
44248;SDS011;29923;48.718;9.272;2023-06-10T03:52:11;8.57;;;3.88;;
44248;SDS011;29923;48.718;9.272;2023-06-10T03:54:36;7.15;;;4.70;;
44248;SDS011;29923;48.718;9.272;2023-06-10T03:57:02;6.35;;;4.20;;
44248;SDS011;29923;48.718;9.272;2023-06-10T03:59:28;5.97;;;4.63;;
44248;SDS011;29923;48.718;9.272;2023-06-10T04:01:53;6.47;;;4.20;;
44248;SDS011;29923;48.718;9.272;2023-06-10T04:04:19;5.63;;;4.45;;
44248;SDS011;29923;48.718;9.272;2023-06-10T04:06:44;7.28;;;4.03;;
44248;SDS011;29923;48.718;9.272;2023-06-10T04:09:10;9.23;;;4.07;;
44248;SDS011;29923;48.718;9.272;2023-06-10T04:11:36;4.40;;;4.00;;
44248;SDS011;29923;48.718;9.272;2023-06-10T04:14:02;7.80;;;4.28;;
44248;SDS011;29923;48.718;9.272;2023-06-10T04:16:27;7.65;;;3.90;;
44248;SDS011;29923;48.718;9.272;2023-06-10T04:18:53;5.32;;;4.30;;
44248;SDS011;29923;48.718;9.272;2023-06-10T04:21:18;6.78;;;4.18;;
44248;SDS011;29923;48.718;9.272;2023-06-10T04:23:43;4.22;;;3.53;;
44248;SDS011;29923;48.718;9.272;2023-06-10T04:26:09;6.28;;;4.70;;
44248;SDS011;29923;48.718;9.272;2023-06-10T04:28:36;6.38;;;5.07;;
44248;SDS011;29923;48.718;9.272;2023-06-10T04:31:01;5.20;;;4.70;;
44248;SDS011;29923;48.718;9.272;2023-06-10T04:33:28;7.47;;;4.50;;
44248;SDS011;29923;48.718;9.272;2023-06-10T04:35:54;6.53;;;4.78;;
44248;SDS011;29923;48.718;9.272;2023-06-10T04:38:19;4.93;;;4.40;;
44248;SDS011;29923;48.718;9.272;2023-06-10T04:40:45;4.88;;;4.30;;
44248;SDS011;29923;48.718;9.272;2023-06-10T04:43:11;7.82;;;4.75;;
44248;SDS011;29923;48.718;9.272;2023-06-10T04:45:36;5.72;;;4.63;;
44248;SDS011;29923;48.718;9.272;2023-06-10T04:48:01;5.95;;;4.07;;
44248;SDS011;29923;48.718;9.272;2023-06-10T04:50:28;4.60;;;4.20;;
44248;SDS011;29923;48.718;9.272;2023-06-10T04:52:53;4.90;;;4.40;;
44248;SDS011;29923;48.718;9.272;2023-06-10T04:55:22;4.47;;;4.05;;
44248;SDS011;29923;48.718;9.272;2023-06-10T04:57:47;4.18;;;3.75;;
44248;SDS011;29923;48.718;9.272;2023-06-10T05:00:13;4.03;;;3.63;;
44248;SDS011;29923;48.718;9.272;2023-06-10T05:02:39;4.43;;;4.03;;
44248;SDS011;29923;48.718;9.272;2023-06-10T05:05:04;4.72;;;4.00;;
44248;SDS011;29923;48.718;9.272;2023-06-10T05:07:31;7.50;;;3.90;;
44248;SDS011;29923;48.718;9.272;2023-06-10T05:09:56;5.68;;;4.15;;
44248;SDS011;29923;48.718;9.272;2023-06-10T05:12:21;4.32;;;3.92;;
44248;SDS011;29923;48.718;9.272;2023-06-10T05:14:47;6.13;;;3.83;;
44248;SDS011;29923;48.718;9.272;2023-06-10T05:17:12;4.88;;;4.00;;
44248;SDS011;29923;48.718;9.272;2023-06-10T05:19:38;5.55;;;3.70;;
44248;SDS011;29923;48.718;9.272;2023-06-10T05:22:03;5.63;;;3.80;;
44248;SDS011;29923;48.718;9.272;2023-06-10T05:24:29;6.05;;;3.78;;
44248;SDS011;29923;48.718;9.272;2023-06-10T05:26:54;4.68;;;4.00;;
44248;SDS011;29923;48.718;9.272;2023-06-10T05:29:19;3.90;;;3.33;;
44248;SDS011;29923;48.718;9.272;2023-06-10T05:31:45;4.40;;;3.53;;
44248;SDS011;29923;48.718;9.272;2023-06-10T05:34:10;6.97;;;4.00;;
44248;SDS011;29923;48.718;9.272;2023-06-10T05:36:36;4.35;;;3.92;;
44248;SDS011;29923;48.718;9.272;2023-06-10T05:39:01;4.72;;;3.67;;
44248;SDS011;29923;48.718;9.272;2023-06-10T05:41:26;5.18;;;3.95;;
44248;SDS011;29923;48.718;9.272;2023-06-10T05:43:52;5.25;;;4.07;;
44248;SDS011;29923;48.718;9.272;2023-06-10T05:46:17;6.88;;;5.45;;
44248;SDS011;29923;48.718;9.272;2023-06-10T05:48:42;5.07;;;4.47;;
44248;SDS011;29923;48.718;9.272;2023-06-10T05:51:08;4.78;;;4.20;;
44248;SDS011;29923;48.718;9.272;2023-06-10T05:53:33;5.95;;;4.28;;
44248;SDS011;29923;48.718;9.272;2023-06-10T05:55:59;8.43;;;4.40;;
44248;SDS011;29923;48.718;9.272;2023-06-10T05:58:24;6.65;;;4.18;;
44248;SDS011;29923;48.718;9.272;2023-06-10T06:00:49;7.57;;;4.70;;
44248;SDS011;29923;48.718;9.272;2023-06-10T06:03:15;7.80;;;4.55;;
44248;SDS011;29923;48.718;9.272;2023-06-10T06:05:40;6.75;;;4.75;;
44248;SDS011;29923;48.718;9.272;2023-06-10T06:08:06;8.07;;;5.00;;
44248;SDS011;29923;48.718;9.272;2023-06-10T06:10:32;5.10;;;4.63;;
44248;SDS011;29923;48.718;9.272;2023-06-10T06:12:58;7.75;;;4.97;;
44248;SDS011;29923;48.718;9.272;2023-06-10T06:15:24;5.30;;;4.50;;
44248;SDS011;29923;48.718;9.272;2023-06-10T06:17:49;5.55;;;4.68;;
44248;SDS011;29923;48.718;9.272;2023-06-10T06:20:17;6.07;;;4.82;;
44248;SDS011;29923;48.718;9.272;2023-06-10T06:22:43;9.90;;;4.20;;
44248;SDS011;29923;48.718;9.272;2023-06-10T06:25:09;5.47;;;4.45;;
44248;SDS011;29923;48.718;9.272;2023-06-10T06:27:34;5.80;;;4.50;;
44248;SDS011;29923;48.718;9.272;2023-06-10T06:29:59;4.85;;;4.38;;
44248;SDS011;29923;48.718;9.272;2023-06-10T06:32:25;5.60;;;4.80;;
44248;SDS011;29923;48.718;9.272;2023-06-10T06:34:52;6.13;;;4.70;;
44248;SDS011;29923;48.718;9.272;2023-06-10T06:37:21;9.07;;;4.40;;
44248;SDS011;29923;48.718;9.272;2023-06-10T06:39:46;6.03;;;4.25;;
44248;SDS011;29923;48.718;9.272;2023-06-10T06:42:12;6.00;;;4.25;;
44248;SDS011;29923;48.718;9.272;2023-06-10T06:44:37;6.00;;;4.50;;
44248;SDS011;29923;48.718;9.272;2023-06-10T06:47:02;6.82;;;4.38;;
44248;SDS011;29923;48.718;9.272;2023-06-10T06:49:28;9.07;;;5.03;;
44248;SDS011;29923;48.718;9.272;2023-06-10T06:51:53;4.53;;;3.80;;
44248;SDS011;29923;48.718;9.272;2023-06-10T06:54:19;7.45;;;4.30;;
44248;SDS011;29923;48.718;9.272;2023-06-10T06:56:44;7.55;;;5.03;;
44248;SDS011;29923;48.718;9.272;2023-06-10T06:59:09;6.72;;;4.28;;
44248;SDS011;29923;48.718;9.272;2023-06-10T07:01:35;5.57;;;4.43;;
44248;SDS011;29923;48.718;9.272;2023-06-10T07:04:00;5.60;;;4.68;;
44248;SDS011;29923;48.718;9.272;2023-06-10T07:06:25;4.88;;;4.38;;
44248;SDS011;29923;48.718;9.272;2023-06-10T07:08:51;7.28;;;4.22;;
44248;SDS011;29923;48.718;9.272;2023-06-10T07:11:16;5.20;;;4.45;;
44248;SDS011;29923;48.718;9.272;2023-06-10T07:13:42;4.47;;;4.00;;
44248;SDS011;29923;48.718;9.272;2023-06-10T07:16:08;7.22;;;4.40;;
44248;SDS011;29923;48.718;9.272;2023-06-10T07:18:33;6.15;;;4.28;;
44248;SDS011;29923;48.718;9.272;2023-06-10T07:20:58;5.10;;;4.60;;
44248;SDS011;29923;48.718;9.272;2023-06-10T07:23:24;6.05;;;3.90;;
44248;SDS011;29923;48.718;9.272;2023-06-10T07:25:49;4.82;;;4.32;;
44248;SDS011;29923;48.718;9.272;2023-06-10T07:28:15;4.75;;;3.80;;
44248;SDS011;29923;48.718;9.272;2023-06-10T07:30:40;4.68;;;3.90;;
44248;SDS011;29923;48.718;9.272;2023-06-10T07:33:05;4.80;;;4.25;;
44248;SDS011;29923;48.718;9.272;2023-06-10T07:35:32;4.68;;;3.75;;
44248;SDS011;29923;48.718;9.272;2023-06-10T07:37:58;4.28;;;3.88;;
44248;SDS011;29923;48.718;9.272;2023-06-10T07:40:23;4.70;;;3.95;;
44248;SDS011;29923;48.718;9.272;2023-06-10T07:42:49;3.90;;;3.50;;
44248;SDS011;29923;48.718;9.272;2023-06-10T07:45:15;5.10;;;3.97;;
44248;SDS011;29923;48.718;9.272;2023-06-10T07:47:40;7.93;;;4.65;;
44248;SDS011;29923;48.718;9.272;2023-06-10T07:50:05;8.63;;;4.20;;
44248;SDS011;29923;48.718;9.272;2023-06-10T07:52:31;4.20;;;3.70;;
44248;SDS011;29923;48.718;9.272;2023-06-10T07:54:56;5.80;;;3.70;;
44248;SDS011;29923;48.718;9.272;2023-06-10T07:57:22;5.05;;;3.63;;
44248;SDS011;29923;48.718;9.272;2023-06-10T07:59:47;4.32;;;3.92;;
44248;SDS011;29923;48.718;9.272;2023-06-10T08:02:13;5.43;;;4.03;;
44248;SDS011;29923;48.718;9.272;2023-06-10T08:04:39;13.48;;;4.35;;
44248;SDS011;29923;48.718;9.272;2023-06-10T08:07:04;6.50;;;4.32;;
44248;SDS011;29923;48.718;9.272;2023-06-10T08:09:30;5.57;;;4.05;;
44248;SDS011;29923;48.718;9.272;2023-06-10T08:11:55;6.45;;;4.97;;
44248;SDS011;29923;48.718;9.272;2023-06-10T08:14:21;8.48;;;3.90;;
44248;SDS011;29923;48.718;9.272;2023-06-10T08:16:46;4.60;;;4.05;;
44248;SDS011;29923;48.718;9.272;2023-06-10T08:19:11;6.30;;;4.38;;
44248;SDS011;29923;48.718;9.272;2023-06-10T08:21:37;5.40;;;3.72;;
44248;SDS011;29923;48.718;9.272;2023-06-10T08:24:04;5.68;;;4.20;;
44248;SDS011;29923;48.718;9.272;2023-06-10T08:26:30;5.70;;;3.72;;
44248;SDS011;29923;48.718;9.272;2023-06-10T08:28:55;6.78;;;4.32;;
44248;SDS011;29923;48.718;9.272;2023-06-10T08:31:21;6.47;;;3.75;;
44248;SDS011;29923;48.718;9.272;2023-06-10T08:33:46;4.20;;;3.70;;
44248;SDS011;29923;48.718;9.272;2023-06-10T08:36:12;8.23;;;3.97;;
44248;SDS011;29923;48.718;9.272;2023-06-10T08:38:37;6.78;;;4.00;;
44248;SDS011;29923;48.718;9.272;2023-06-10T08:41:04;6.22;;;4.07;;
44248;SDS011;29923;48.718;9.272;2023-06-10T08:43:34;7.43;;;4.30;;
44248;SDS011;29923;48.718;9.272;2023-06-10T08:46:03;5.15;;;4.22;;
44248;SDS011;29923;48.718;9.272;2023-06-10T08:48:31;4.85;;;3.80;;
44248;SDS011;29923;48.718;9.272;2023-06-10T08:51:00;4.53;;;3.83;;
44248;SDS011;29923;48.718;9.272;2023-06-10T08:53:26;6.10;;;4.22;;
44248;SDS011;29923;48.718;9.272;2023-06-10T08:55:52;8.10;;;4.88;;
44248;SDS011;29923;48.718;9.272;2023-06-10T08:58:19;4.95;;;4.32;;
44248;SDS011;29923;48.718;9.272;2023-06-10T09:00:45;7.80;;;4.45;;
44248;SDS011;29923;48.718;9.272;2023-06-10T09:03:11;5.95;;;4.50;;
44248;SDS011;29923;48.718;9.272;2023-06-10T09:05:36;4.70;;;3.97;;
44248;SDS011;29923;48.718;9.272;2023-06-10T09:08:02;5.35;;;3.63;;
44248;SDS011;29923;48.718;9.272;2023-06-10T09:10:27;4.75;;;4.03;;
44248;SDS011;29923;48.718;9.272;2023-06-10T09:12:53;4.30;;;3.90;;
44248;SDS011;29923;48.718;9.272;2023-06-10T09:15:19;5.95;;;3.45;;
44248;SDS011;29923;48.718;9.272;2023-06-10T09:17:45;5.95;;;3.80;;
44248;SDS011;29923;48.718;9.272;2023-06-10T09:20:11;6.10;;;3.95;;
44248;SDS011;29923;48.718;9.272;2023-06-10T09:22:36;5.22;;;3.60;;
44248;SDS011;29923;48.718;9.272;2023-06-10T09:25:03;3.63;;;3.33;;
44248;SDS011;29923;48.718;9.272;2023-06-10T09:27:34;6.68;;;3.88;;
44248;SDS011;29923;48.718;9.272;2023-06-10T09:30:09;7.50;;;3.40;;
44248;SDS011;29923;48.718;9.272;2023-06-10T09:32:38;7.20;;;3.70;;
44248;SDS011;29923;48.718;9.272;2023-06-10T09:35:08;4.05;;;3.33;;
44248;SDS011;29923;48.718;9.272;2023-06-10T09:37:34;6.43;;;3.63;;
44248;SDS011;29923;48.718;9.272;2023-06-10T09:40:04;9.18;;;3.45;;
44248;SDS011;29923;48.718;9.272;2023-06-10T09:42:34;7.85;;;3.92;;
44248;SDS011;29923;48.718;9.272;2023-06-10T09:45:03;4.05;;;3.33;;
44248;SDS011;29923;48.718;9.272;2023-06-10T09:47:29;4.72;;;3.30;;
44248;SDS011;29923;48.718;9.272;2023-06-10T09:49:54;6.68;;;3.38;;
44248;SDS011;29923;48.718;9.272;2023-06-10T09:52:26;4.00;;;3.22;;
44248;SDS011;29923;48.718;9.272;2023-06-10T09:54:53;4.32;;;3.05;;
44248;SDS011;29923;48.718;9.272;2023-06-10T09:57:20;6.50;;;3.45;;
44248;SDS011;29923;48.718;9.272;2023-06-10T09:59:46;4.35;;;3.20;;
44248;SDS011;29923;48.718;9.272;2023-06-10T10:02:18;4.28;;;3.67;;
44248;SDS011;29923;48.718;9.272;2023-06-10T10:04:44;4.75;;;3.65;;
44248;SDS011;29923;48.718;9.272;2023-06-10T10:07:10;3.75;;;3.42;;
44248;SDS011;29923;48.718;9.272;2023-06-10T10:09:39;4.70;;;3.08;;
44248;SDS011;29923;48.718;9.272;2023-06-10T10:14:40;4.10;;;3.50;;
44248;SDS011;29923;48.718;9.272;2023-06-10T10:17:11;8.57;;;3.10;;
44248;SDS011;29923;48.718;9.272;2023-06-10T10:19:37;6.28;;;3.42;;
44248;SDS011;29923;48.718;9.272;2023-06-10T10:22:10;7.38;;;3.10;;
44248;SDS011;29923;48.718;9.272;2023-06-10T10:24:42;5.25;;;3.20;;
44248;SDS011;29923;48.718;9.272;2023-06-10T10:29:42;5.07;;;3.17;;
44248;SDS011;29923;48.718;9.272;2023-06-10T10:32:11;5.25;;;3.22;;
44248;SDS011;29923;48.718;9.272;2023-06-10T10:34:40;5.40;;;3.42;;
44248;SDS011;29923;48.718;9.272;2023-06-10T10:37:13;6.78;;;3.13;;
44248;SDS011;29923;48.718;9.272;2023-06-10T10:39:39;6.43;;;2.97;;
44248;SDS011;29923;48.718;9.272;2023-06-10T10:42:05;5.18;;;3.85;;
44248;SDS011;29923;48.718;9.272;2023-06-10T10:44:34;3.67;;;3.15;;
44248;SDS011;29923;48.718;9.272;2023-06-10T10:47:02;5.13;;;2.88;;
44248;SDS011;29923;48.718;9.272;2023-06-10T10:49:28;3.20;;;2.70;;
44248;SDS011;29923;48.718;9.272;2023-06-10T10:51:59;3.60;;;3.30;;
44248;SDS011;29923;48.718;9.272;2023-06-10T10:54:35;3.00;;;2.55;;
44248;SDS011;29923;48.718;9.272;2023-06-10T10:59:57;9.60;;;3.33;;
44248;SDS011;29923;48.718;9.272;2023-06-10T11:05:08;3.35;;;3.00;;
44248;SDS011;29923;48.718;9.272;2023-06-10T11:07:53;2.75;;;2.55;;
44248;SDS011;29923;48.718;9.272;2023-06-10T11:10:32;4.35;;;3.00;;
44248;SDS011;29923;48.718;9.272;2023-06-10T11:12:59;4.38;;;2.85;;
44248;SDS011;29923;48.718;9.272;2023-06-10T11:15:25;2.75;;;2.47;;
44248;SDS011;29923;48.718;9.272;2023-06-10T11:18:34;4.43;;;3.13;;
44248;SDS011;29923;48.718;9.272;2023-06-10T11:23:17;4.20;;;2.85;;
44248;SDS011;29923;48.718;9.272;2023-06-10T11:31:20;4.60;;;3.42;;
44248;SDS011;29923;48.718;9.272;2023-06-10T11:33:46;4.57;;;2.92;;
44248;SDS011;29923;48.718;9.272;2023-06-10T11:36:13;4.28;;;2.88;;
44248;SDS011;29923;48.718;9.272;2023-06-10T11:38:38;2.80;;;2.53;;
44248;SDS011;29923;48.718;9.272;2023-06-10T11:41:05;5.50;;;3.03;;
44248;SDS011;29923;48.718;9.272;2023-06-10T11:43:31;6.40;;;2.80;;
44248;SDS011;29923;48.718;9.272;2023-06-10T11:45:57;4.15;;;2.80;;
44248;SDS011;29923;48.718;9.272;2023-06-10T11:48:22;4.95;;;2.80;;
44248;SDS011;29923;48.718;9.272;2023-06-10T11:50:47;4.03;;;2.95;;
44248;SDS011;29923;48.718;9.272;2023-06-10T11:53:13;3.42;;;3.10;;
44248;SDS011;29923;48.718;9.272;2023-06-10T11:55:42;3.33;;;3.00;;
44248;SDS011;29923;48.718;9.272;2023-06-10T11:58:19;4.70;;;2.70;;
44248;SDS011;29923;48.718;9.272;2023-06-10T12:00:49;7.70;;;2.90;;
44248;SDS011;29923;48.718;9.272;2023-06-10T12:03:16;6.35;;;2.92;;
44248;SDS011;29923;48.718;9.272;2023-06-10T12:05:57;5.18;;;2.85;;
44248;SDS011;29923;48.718;9.272;2023-06-10T12:08:27;4.32;;;2.83;;
44248;SDS011;29923;48.718;9.272;2023-06-10T12:10:54;4.60;;;2.67;;
44248;SDS011;29923;48.718;9.272;2023-06-10T12:13:19;4.78;;;2.65;;
44248;SDS011;29923;48.718;9.272;2023-06-10T12:15:45;4.45;;;2.90;;
44248;SDS011;29923;48.718;9.272;2023-06-10T12:18:23;4.95;;;3.15;;
44248;SDS011;29923;48.718;9.272;2023-06-10T12:20:49;11.50;;;2.78;;
44248;SDS011;29923;48.718;9.272;2023-06-10T12:23:16;3.70;;;3.08;;
44248;SDS011;29923;48.718;9.272;2023-06-10T12:25:52;3.00;;;2.63;;
44248;SDS011;29923;48.718;9.272;2023-06-10T12:28:24;2.95;;;2.60;;
44248;SDS011;29923;48.718;9.272;2023-06-10T12:30:51;4.82;;;2.58;;
44248;SDS011;29923;48.718;9.272;2023-06-10T12:33:23;4.30;;;2.97;;
44248;SDS011;29923;48.718;9.272;2023-06-10T12:35:49;3.67;;;3.10;;
44248;SDS011;29923;48.718;9.272;2023-06-10T12:38:17;4.65;;;2.90;;
44248;SDS011;29923;48.718;9.272;2023-06-10T12:40:46;3.50;;;3.00;;
44248;SDS011;29923;48.718;9.272;2023-06-10T12:43:12;3.60;;;2.75;;
44248;SDS011;29923;48.718;9.272;2023-06-10T12:45:38;4.47;;;2.90;;
44248;SDS011;29923;48.718;9.272;2023-06-10T12:48:10;2.93;;;2.73;;
44248;SDS011;29923;48.718;9.272;2023-06-10T12:50:41;3.00;;;2.70;;
44248;SDS011;29923;48.718;9.272;2023-06-10T12:53:07;2.75;;;2.55;;
44248;SDS011;29923;48.718;9.272;2023-06-10T12:55:33;4.35;;;2.67;;
44248;SDS011;29923;48.718;9.272;2023-06-10T12:57:59;8.77;;;2.30;;
44248;SDS011;29923;48.718;9.272;2023-06-10T13:00:25;4.03;;;2.45;;
44248;SDS011;29923;48.718;9.272;2023-06-10T13:02:54;4.30;;;2.38;;
44248;SDS011;29923;48.718;9.272;2023-06-10T13:05:19;3.35;;;2.33;;
44248;SDS011;29923;48.718;9.272;2023-06-10T13:07:45;7.45;;;3.10;;
44248;SDS011;29923;48.718;9.272;2023-06-10T13:10:12;2.55;;;2.28;;
44248;SDS011;29923;48.718;9.272;2023-06-10T13:12:38;3.85;;;2.20;;
44248;SDS011;29923;48.718;9.272;2023-06-10T13:15:04;4.72;;;2.50;;
44248;SDS011;29923;48.718;9.272;2023-06-10T13:17:30;5.95;;;2.50;;
44248;SDS011;29923;48.718;9.272;2023-06-10T13:19:55;2.67;;;2.42;;
44248;SDS011;29923;48.718;9.272;2023-06-10T13:22:20;4.10;;;2.92;;
44248;SDS011;29923;48.718;9.272;2023-06-10T13:24:46;3.47;;;2.60;;
44248;SDS011;29923;48.718;9.272;2023-06-10T13:27:12;3.58;;;2.60;;
44248;SDS011;29923;48.718;9.272;2023-06-10T13:29:39;3.70;;;2.25;;
44248;SDS011;29923;48.718;9.272;2023-06-10T13:32:05;2.72;;;2.45;;
44248;SDS011;29923;48.718;9.272;2023-06-10T13:34:31;3.00;;;2.47;;
44248;SDS011;29923;48.718;9.272;2023-06-10T13:36:56;4.07;;;2.60;;
44248;SDS011;29923;48.718;9.272;2023-06-10T13:39:21;7.05;;;2.38;;
44248;SDS011;29923;48.718;9.272;2023-06-10T13:41:47;4.30;;;2.78;;
44248;SDS011;29923;48.718;9.272;2023-06-10T13:44:12;4.35;;;3.17;;
44248;SDS011;29923;48.718;9.272;2023-06-10T13:46:37;4.88;;;2.90;;
44248;SDS011;29923;48.718;9.272;2023-06-10T13:49:03;6.88;;;2.85;;
44248;SDS011;29923;48.718;9.272;2023-06-10T13:51:28;6.18;;;2.90;;
44248;SDS011;29923;48.718;9.272;2023-06-10T13:53:53;6.70;;;2.50;;
44248;SDS011;29923;48.718;9.272;2023-06-10T13:56:19;3.15;;;2.70;;
44248;SDS011;29923;48.718;9.272;2023-06-10T13:58:44;3.05;;;2.75;;
44248;SDS011;29923;48.718;9.272;2023-06-10T14:01:10;6.50;;;3.47;;
44248;SDS011;29923;48.718;9.272;2023-06-10T14:03:35;4.22;;;2.50;;
44248;SDS011;29923;48.718;9.272;2023-06-10T14:06:01;7.65;;;3.63;;
44248;SDS011;29923;48.718;9.272;2023-06-10T14:08:26;5.32;;;2.55;;
44248;SDS011;29923;48.718;9.272;2023-06-10T14:10:52;4.65;;;2.30;;
44248;SDS011;29923;48.718;9.272;2023-06-10T14:13:17;2.80;;;2.28;;
44248;SDS011;29923;48.718;9.272;2023-06-10T14:15:43;2.75;;;2.15;;
44248;SDS011;29923;48.718;9.272;2023-06-10T14:18:08;4.97;;;2.28;;
44248;SDS011;29923;48.718;9.272;2023-06-10T14:20:34;3.05;;;2.65;;
44248;SDS011;29923;48.718;9.272;2023-06-10T14:22:59;6.57;;;2.95;;
44248;SDS011;29923;48.718;9.272;2023-06-10T14:25:25;8.73;;;2.63;;
44248;SDS011;29923;48.718;9.272;2023-06-10T14:27:50;3.20;;;2.67;;
44248;SDS011;29923;48.718;9.272;2023-06-10T14:30:16;5.47;;;3.05;;
44248;SDS011;29923;48.718;9.272;2023-06-10T14:32:41;5.05;;;2.60;;
44248;SDS011;29923;48.718;9.272;2023-06-10T14:35:07;3.70;;;2.60;;
44248;SDS011;29923;48.718;9.272;2023-06-10T14:37:33;5.30;;;3.42;;
44248;SDS011;29923;48.718;9.272;2023-06-10T14:39:58;3.10;;;2.80;;
44248;SDS011;29923;48.718;9.272;2023-06-10T14:42:24;3.17;;;2.88;;
44248;SDS011;29923;48.718;9.272;2023-06-10T14:44:49;3.85;;;2.55;;
44248;SDS011;29923;48.718;9.272;2023-06-10T14:47:15;6.80;;;3.35;;
44248;SDS011;29923;48.718;9.272;2023-06-10T14:49:41;5.95;;;2.70;;
44248;SDS011;29923;48.718;9.272;2023-06-10T14:52:07;5.95;;;3.20;;
44248;SDS011;29923;48.718;9.272;2023-06-10T14:54:33;3.60;;;3.30;;
44248;SDS011;29923;48.718;9.272;2023-06-10T14:56:58;6.72;;;3.55;;
44248;SDS011;29923;48.718;9.272;2023-06-10T14:59:23;6.78;;;3.67;;
44248;SDS011;29923;48.718;9.272;2023-06-10T15:01:49;3.50;;;3.13;;
44248;SDS011;29923;48.718;9.272;2023-06-10T15:04:14;4.38;;;3.40;;